Stations météo

réclame
Mon MeteoGroup
Berlin/Alexanderplatz, Allemagne (10389): Température de l'air & dewpoint: 13.07.2018 19:00:00 - 19.07.2018 19:00:00 (CEST)Berlin/Alexanderplatz, Allemagne (10389): Température de l'air -5cm: 13.07.2018 19:00:00 - 19.07.2018 19:00:00 (CEST)Berlin/Alexanderplatz, Allemagne (10389): Température de l'air -20cm & Température de l'air -100cm: 13.07.2018 19:00:00 - 19.07.2018 19:00:00 (CEST)Berlin/Alexanderplatz, Allemagne (10389): Ensoleillement: 13.07.2018 19:00:00 - 19.07.2018 19:00:00 (CEST)Berlin/Alexanderplatz, Allemagne (10389): Quantités de précipitations: 13.07.2018 19:00:00 - 19.07.2018 19:00:00 (CEST)
Date & Time tt [°C] td [°C] tt -5cm [°C] tt -20cm [°C] tt -100cm [°C] sd [min] rr [mm]
19.07.2018 19:00:00 - - - - - - -
19.07.2018 18:00:00 - - - - - - -
19.07.2018 17:00:00 - - - - - - -
19.07.2018 16:00:00 - - - - - - -
19.07.2018 15:00:00 - - - - - - -
19.07.2018 14:00:00 - - - - - - -
19.07.2018 13:00:00 - - - - - - -
19.07.2018 12:00:00 - - - - - - -
19.07.2018 11:00:00 - - - - - - -
19.07.2018 10:00:00 - - - - - - -
19.07.2018 09:00:00 - - - - - - -
19.07.2018 08:00:00 - - - - - - -
19.07.2018 07:00:00 - - - - - - -
19.07.2018 06:00:00 - - - - - - -
19.07.2018 05:00:00 - - - - - - -
19.07.2018 04:00:00 - - - - - - -
19.07.2018 03:00:00 - - - - - - -
19.07.2018 02:00:00 20,3 13,7 23,8 26,9 20,9 0 0,0
19.07.2018 01:00:00 21,4 13,3 24,6 27,4 20,7 0 0,0
19.07.2018 00:00:00 22,2 13,3 25,6 27,7 20,7 0 0,0
18.07.2018 23:00:00 23,1 13,0 26,9 28,2 20,7 0 0,0
18.07.2018 22:00:00 24,0 13,2 28,5 28,7 20,7 0 0,0
18.07.2018 21:00:00 25,2 12,8 30,5 28,9 20,7 0 0,0
18.07.2018 20:00:00 26,0 12,5 32,9 28,9 20,7 32 0,0
18.07.2018 19:00:00 26,7 12,4 35,4 28,7 20,7 60 0,0
18.07.2018 18:00:00 27,4 11,8 37,4 28,2 20,7 58 0,0
18.07.2018 17:00:00 26,5 11,4 38,3 27,7 20,7 60 0,0
18.07.2018 16:00:00 26,8 12,1 38,2 26,9 20,7 60 0,0
18.07.2018 15:00:00 26,1 12,5 38,1 26,0 20,7 60 0,0
18.07.2018 14:00:00 25,4 12,9 36,6 25,1 20,7 60 0,0
18.07.2018 13:00:00 24,6 12,2 33,4 24,7 20,7 60 0,0
18.07.2018 12:00:00 23,2 13,4 28,4 24,3 20,6 32 0,0
18.07.2018 11:00:00 23,3 12,6 25,5 24,2 20,7 13 0,0
18.07.2018 10:00:00 22,1 13,4 24,5 24,2 20,7 1 0,0
18.07.2018 09:00:00 - - - - - - -
18.07.2018 08:00:00 19,4 14,4 22,6 24,7 20,5 0 0,0
18.07.2018 07:00:00 19,7 14,7 22,5 25,0 20,5 0 0,0
18.07.2018 06:00:00 20,4 15,2 22,7 25,3 20,5 0 0,0
18.07.2018 05:00:00 21,0 15,1 23,1 25,6 20,5 0 0,0
18.07.2018 04:00:00 21,5 15,6 23,7 25,9 20,5 0 0,0
18.07.2018 03:00:00 21,8 16,1 24,3 26,3 20,5 0 0,0
18.07.2018 02:00:00 22,4 16,2 24,9 26,7 20,4 0 0,0
18.07.2018 01:00:00 22,7 15,8 25,6 27,0 20,4 0 0,0
18.07.2018 00:00:00 22,9 15,5 26,3 27,5 20,4 0 0,0
17.07.2018 23:00:00 23,1 15,7 27,4 27,9 20,4 0 0,0
17.07.2018 22:00:00 23,8 15,3 28,7 28,2 20,4 0 0,0
17.07.2018 21:00:00 24,1 15,3 30,6 28,5 20,4 0 0,0
17.07.2018 20:00:00 24,7 15,3 32,8 28,7 20,4 23 0,0
17.07.2018 19:00:00 25,5 15,8 35,3 28,5 20,4 50 0,0
17.07.2018 18:00:00 27,5 13,4 37,6 28,0 20,4 52 0,0
17.07.2018 17:00:00 29,4 11,9 39,9 27,2 20,4 55 0,0
17.07.2018 16:00:00 29,7 11,2 40,8 26,4 20,2 59 0,0
17.07.2018 15:00:00 30,1 11,6 40,6 25,2 20,2 60 0,0
17.07.2018 14:00:00 28,2 10,8 39,1 24,2 20,3 60 0,0
17.07.2018 13:00:00 27,8 12,2 35,7 23,2 20,2 60 0,0
17.07.2018 12:00:00 26,3 12,0 30,3 22,9 20,2 59 0,0
17.07.2018 11:00:00 24,7 12,0 25,2 22,7 20,2 7 0,0
17.07.2018 10:00:00 23,5 12,2 23,7 22,7 20,2 0 0,0
17.07.2018 09:00:00 22,2 14,3 22,9 22,7 20,2 0 0,0
17.07.2018 08:00:00 20,6 13,6 21,6 22,9 20,2 0 0,0
17.07.2018 07:00:00 20,3 13,5 20,8 23,0 20,2 0 0,0
17.07.2018 06:00:00 19,5 13,2 20,2 23,4 20,2 0 0,0
17.07.2018 05:00:00 19,5 13,4 20,4 23,7 20,2 0 0,0
17.07.2018 04:00:00 20,0 13,9 20,8 24,0 20,2 0 0,0
17.07.2018 03:00:00 20,6 14,7 21,2 24,5 20,2 0 0,0
17.07.2018 02:00:00 20,8 14,7 21,9 24,9 20,2 0 0,0
17.07.2018 01:00:00 21,2 14,4 22,7 25,4 20,2 0 0,0
17.07.2018 00:00:00 21,6 13,8 23,7 25,7 20,2 0 0,0
16.07.2018 23:00:00 22,3 13,9 25,1 26,2 20,2 0 0,0
16.07.2018 22:00:00 23,4 14,4 26,9 26,7 20,0 0 0,0
16.07.2018 21:00:00 26,6 11,5 28,7 27,0 20,0 0 0,0
16.07.2018 20:00:00 27,1 10,7 31,5 27,0 20,0 23 0,0
16.07.2018 19:00:00 28,8 11,8 35,0 26,7 20,0 60 0,0
16.07.2018 18:00:00 28,1 11,2 36,8 26,2 20,0 47 0,0
16.07.2018 17:00:00 27,1 11,2 37,9 25,4 20,0 41 0,0
16.07.2018 16:00:00 29,1 11,6 39,8 24,4 20,0 56 0,0
16.07.2018 15:00:00 27,4 11,0 39,4 23,2 20,0 60 0,0
16.07.2018 14:00:00 26,6 10,3 36,4 22,1 20,1 58 0,0
16.07.2018 13:00:00 25,4 12,3 32,8 21,2 20,0 60 0,0
16.07.2018 12:00:00 24,1 12,1 26,7 20,9 20,0 60 0,0
16.07.2018 11:00:00 22,9 12,8 19,6 20,9 20,0 24 0,0
16.07.2018 10:00:00 21,3 13,0 18,7 21,0 20,0 1 0,0
16.07.2018 09:00:00 19,7 13,9 18,0 21,2 20,0 0 0,0
16.07.2018 08:00:00 18,5 12,9 17,7 21,5 20,0 0 1,3
16.07.2018 07:00:00 17,6 13,5 17,6 21,7 20,0 0 0,0
16.07.2018 06:00:00 16,9 14,0 17,7 22,0 20,0 0 0,0
16.07.2018 05:00:00 17,0 14,1 18,2 22,5 20,0 0 0,0
16.07.2018 04:00:00 17,4 14,3 18,7 22,7 20,0 0 0,0
16.07.2018 03:00:00 17,9 14,4 19,4 23,2 20,0 0 0,0
16.07.2018 02:00:00 18,4 14,3 20,2 23,7 20,0 0 0,0
16.07.2018 01:00:00 19,6 14,0 21,1 24,0 20,0 0 0,0
16.07.2018 00:00:00 20,7 13,6 22,1 24,7 20,0 0 0,0
15.07.2018 23:00:00 21,5 11,8 23,4 25,0 20,0 0 0,0
15.07.2018 22:00:00 22,7 10,8 25,2 25,5 20,0 0 0,0
15.07.2018 21:00:00 23,7 10,7 27,7 25,7 20,0 0 0,0
15.07.2018 20:00:00 24,4 11,0 30,8 25,7 20,0 34 0,0
15.07.2018 19:00:00 25,4 10,8 34,1 25,4 20,0 60 0,0
15.07.2018 18:00:00 25,6 11,0 36,5 24,7 20,0 59 0,0
15.07.2018 17:00:00 24,8 10,7 38,2 23,7 20,0 58 0,0
15.07.2018 16:00:00 25,1 10,9 38,3 22,7 20,0 60 0,0
15.07.2018 15:00:00 25,0 10,5 36,7 21,7 20,0 50 0,0
15.07.2018 14:00:00 23,6 11,0 34,6 20,5 20,0 57 0,0
15.07.2018 13:00:00 21,8 10,0 30,2 19,7 20,0 53 0,0
15.07.2018 12:00:00 21,5 10,0 24,4 19,4 20,0 52 0,0
15.07.2018 11:00:00 20,2 9,7 17,2 19,4 20,0 18 0,0
15.07.2018 10:00:00 19,1 8,7 16,3 19,5 20,0 4 0,0
15.07.2018 09:00:00 17,8 10,4 15,8 19,7 20,0 0 0,0
15.07.2018 08:00:00 16,9 11,0 15,6 19,9 20,0 0 0,0
15.07.2018 07:00:00 16,2 11,4 15,3 20,0 20,0 0 0,0
15.07.2018 06:00:00 15,8 11,2 15,0 20,4 20,0 0 0,0
15.07.2018 05:00:00 15,8 11,2 15,2 20,7 20,0 0 0,0
15.07.2018 04:00:00 15,4 10,6 15,7 21,0 20,0 0 0,0
15.07.2018 03:00:00 16,0 10,5 16,2 21,5 20,0 0 0,0
15.07.2018 02:00:00 16,4 10,7 16,8 22,0 20,0 0 0,0
15.07.2018 01:00:00 16,9 11,0 17,5 22,4 20,0 0 0,0
15.07.2018 00:00:00 17,2 11,2 18,4 22,9 20,0 0 0,0
14.07.2018 23:00:00 18,2 11,7 19,5 23,2 20,0 0 0,0
14.07.2018 22:00:00 19,7 11,5 20,9 23,7 20,0 0 0,0
14.07.2018 21:00:00 21,3 11,3 22,8 24,0 20,0 0 0,0
14.07.2018 20:00:00 22,0 11,4 25,6 24,2 20,0 35 0,0
14.07.2018 19:00:00 22,6 11,3 28,6 24,0 20,0 60 0,0
14.07.2018 18:00:00 23,3 12,0 30,3 23,7 20,0 60 0,0
14.07.2018 17:00:00 23,1 12,1 31,3 23,0 20,0 60 0,0
14.07.2018 16:00:00 23,6 12,9 31,6 22,4 20,0 60 0,0
14.07.2018 15:00:00 23,5 12,5 31,8 21,5 20,0 60 0,0
14.07.2018 14:00:00 22,6 12,5 31,0 20,7 20,0 60 0,0
14.07.2018 13:00:00 20,6 12,6 28,6 19,9 20,0 60 0,0
14.07.2018 12:00:00 20,9 12,8 24,9 19,5 20,0 60 0,0
14.07.2018 11:00:00 19,6 13,5 18,4 19,5 20,0 16 0,0
14.07.2018 10:00:00 18,1 13,6 17,9 19,5 20,0 4 0,0
14.07.2018 09:00:00 16,6 13,3 18,1 19,7 20,0 0 0,0
14.07.2018 08:00:00 15,8 13,3 16,8 19,7 20,0 0 0,0
14.07.2018 07:00:00 15,5 13,5 16,2 20,0 20,0 0 0,0
14.07.2018 06:00:00 16,0 13,8 16,4 20,2 20,0 0 0,0
14.07.2018 05:00:00 16,6 14,1 16,7 20,4 20,0 0 0,0
14.07.2018 04:00:00 17,5 14,4 17,1 20,7 20,0 0 0,0
14.07.2018 03:00:00 18,2 14,5 17,4 20,9 20,1 0 0,0
14.07.2018 02:00:00 19,0 14,5 17,8 21,2 20,0 0 0,0
14.07.2018 01:00:00 19,5 14,3 18,4 21,5 20,0 0 0,0
14.07.2018 00:00:00 20,5 14,4 19,1 21,7 20,0 0 0,0
13.07.2018 23:00:00 20,8 14,7 19,9 22,0 20,0 0 0,0
13.07.2018 22:00:00 21,1 14,0 20,5 22,2 20,0 0 0,0
13.07.2018 21:00:00 22,5 12,2 21,4 22,5 20,0 0 0,0
13.07.2018 20:00:00 23,9 11,6 23,1 22,7 20,0 18 0,0
13.07.2018 19:00:00 24,8 11,4 24,7 22,4 20,2 4 0,0

tt = Température de l'air
td = dewpoint
tt -5cm = Température de l'air -5cm
tt -20cm = Température de l'air -20cm
tt -100cm = Température de l'air -100cm
sd = Ensoleillement
rr = Quantités de précipitations

stations d'obs. à proximité